createdAt,value
2023-01-23T00:00:15.703Z,100.00
2023-01-23T00:01:22.594Z,100.00
2023-01-23T00:02:25.374Z,100.00
2023-01-23T00:03:27.452Z,100.00
2023-01-23T00:04:29.419Z,100.00
2023-01-23T00:05:31.468Z,100.00
2023-01-23T00:06:33.232Z,100.00
2023-01-23T00:07:35.252Z,100.00
2023-01-23T00:08:37.597Z,100.00
2023-01-23T00:09:39.501Z,100.00
2023-01-23T00:10:41.341Z,100.00
2023-01-23T00:11:43.277Z,100.00
2023-01-23T00:12:45.805Z,100.00
2023-01-23T00:13:49.068Z,100.00
2023-01-23T00:14:51.281Z,100.00
2023-01-23T00:15:53.722Z,100.00
2023-01-23T00:16:55.455Z,100.00
2023-01-23T00:17:58.318Z,100.00
2023-01-23T00:19:00.764Z,100.00
2023-01-23T00:20:04.516Z,100.00
2023-01-23T00:21:08.653Z,100.00
2023-01-23T00:22:11.360Z,100.00
2023-01-23T00:23:15.114Z,100.00
2023-01-23T00:24:17.030Z,100.00
2023-01-23T00:25:18.713Z,100.00
2023-01-23T00:26:24.812Z,100.00
2023-01-23T00:27:27.536Z,100.00
2023-01-23T00:28:29.450Z,100.00
2023-01-23T00:29:31.163Z,100.00
2023-01-23T00:30:33.999Z,100.00
2023-01-23T00:31:38.392Z,100.00
2023-01-23T00:32:40.247Z,100.00
2023-01-23T00:33:44.003Z,100.00
2023-01-23T00:34:46.902Z,100.00
2023-01-23T00:35:48.509Z,100.00
2023-01-23T00:36:50.358Z,100.00
2023-01-23T00:37:52.136Z,100.00
2023-01-23T00:38:53.901Z,100.00
2023-01-23T00:39:55.788Z,100.00
2023-01-23T00:40:57.916Z,100.00
2023-01-23T00:41:59.845Z,100.00
2023-01-23T00:43:02.788Z,100.00
2023-01-23T00:44:05.042Z,100.00
2023-01-23T00:45:07.282Z,100.00
2023-01-23T00:46:10.183Z,100.00
2023-01-23T00:47:13.666Z,100.00
2023-01-23T00:48:16.065Z,100.00
2023-01-23T00:49:17.938Z,100.00
2023-01-23T00:50:19.996Z,100.00
2023-01-23T00:51:22.188Z,100.00
2023-01-23T00:52:23.909Z,100.00
2023-01-23T00:53:25.865Z,100.00
2023-01-23T00:54:27.631Z,100.00
2023-01-23T00:55:29.504Z,100.00
2023-01-23T00:56:32.596Z,100.00
2023-01-23T00:57:34.401Z,100.00
2023-01-23T00:58:36.678Z,100.00
2023-01-23T00:59:38.657Z,100.00
2023-01-23T01:00:40.795Z,100.00
2023-01-23T01:01:42.582Z,100.00
2023-01-23T01:02:45.442Z,100.00
2023-01-23T01:03:47.750Z,100.00
2023-01-23T01:04:49.499Z,100.00
2023-01-23T01:05:52.216Z,100.00
2023-01-23T01:06:54.154Z,100.00
2023-01-23T01:07:55.928Z,100.00
2023-01-23T01:08:58.881Z,100.00
2023-01-23T01:10:01.139Z,100.00
2023-01-23T01:11:03.157Z,100.00
2023-01-23T01:12:05.638Z,100.00
2023-01-23T01:13:08.289Z,100.00
2023-01-23T01:14:10.779Z,100.00
2023-01-23T01:15:13.535Z,100.00
2023-01-23T01:16:15.615Z,100.00
2023-01-23T01:17:17.496Z,100.00
2023-01-23T01:18:21.644Z,100.00
2023-01-23T01:19:23.450Z,100.00
2023-01-23T01:20:27.095Z,100.00
2023-01-23T01:21:29.285Z,100.00
2023-01-23T01:22:31.506Z,100.00
2023-01-23T01:23:33.628Z,100.00
2023-01-23T01:24:35.613Z,100.00
2023-01-23T01:25:37.873Z,100.00
2023-01-23T01:26:40.395Z,100.00
2023-01-23T01:27:42.206Z,100.00
2023-01-23T01:28:44.175Z,100.00
2023-01-23T01:29:45.932Z,100.00
2023-01-23T01:30:47.836Z,100.00
2023-01-23T01:31:49.766Z,100.00
2023-01-23T01:32:54.084Z,100.00
2023-01-23T01:33:56.096Z,100.00
2023-01-23T01:34:57.915Z,100.00
2023-01-23T01:35:59.727Z,100.00
2023-01-23T01:37:02.034Z,100.00
2023-01-23T01:38:03.931Z,100.00
2023-01-23T01:39:06.731Z,100.00
2023-01-23T01:40:13.575Z,100.00
2023-01-23T01:41:16.436Z,100.00
2023-01-23T01:42:18.586Z,100.00
2023-01-23T01:43:24.815Z,100.00
2023-01-23T01:44:28.992Z,100.00
2023-01-23T01:46:08.785Z,100.00
2023-01-23T01:47:16.011Z,100.00
2023-01-23T01:48:20.114Z,100.00
2023-01-23T01:49:30.563Z,100.00
2023-01-23T01:50:32.309Z,100.00
2023-01-23T01:51:50.779Z,100.00
2023-01-23T01:52:53.176Z,100.00
2023-01-23T01:54:21.992Z,100.00
2023-01-23T01:55:25.026Z,100.00
2023-01-23T01:56:29.030Z,100.00
2023-01-23T01:57:36.166Z,100.00
2023-01-23T01:58:40.770Z,100.00
2023-01-23T02:00:10.430Z,100.00
2023-01-23T02:01:12.300Z,100.00
2023-01-23T02:02:19.565Z,100.00
2023-01-23T02:03:21.700Z,100.00
2023-01-23T02:04:24.012Z,100.00
2023-01-23T02:05:31.479Z,100.00
2023-01-23T02:06:33.218Z,100.00
2023-01-23T02:07:46.229Z,100.00
2023-01-23T02:08:57.218Z,100.00
2023-01-23T02:09:59.770Z,100.00
2023-01-23T02:11:05.339Z,100.00
2023-01-23T02:12:07.543Z,100.00
2023-01-23T02:13:39.813Z,100.00
2023-01-23T02:14:42.507Z,100.00
2023-01-23T02:15:45.227Z,100.00
2023-01-23T02:16:51.172Z,100.00
2023-01-23T02:17:54.930Z,100.00
2023-01-23T02:19:08.636Z,100.00
2023-01-23T02:20:27.981Z,100.00
2023-01-23T02:21:31.642Z,100.00
2023-01-23T02:22:57.865Z,100.00
2023-01-23T02:24:25.764Z,100.00
2023-01-23T02:25:46.135Z,100.00
2023-01-23T02:26:48.269Z,100.00
2023-01-23T02:27:50.268Z,100.00
2023-01-23T02:28:54.197Z,100.00
2023-01-23T02:29:56.770Z,100.00
2023-01-23T02:30:58.878Z,100.00
2023-01-23T02:32:00.790Z,100.00
2023-01-23T02:33:21.319Z,100.00
2023-01-23T02:34:23.835Z,100.00
2023-01-23T02:35:30.772Z,100.00
2023-01-23T02:36:34.967Z,100.00
2023-01-23T02:37:40.944Z,100.00
2023-01-23T02:38:54.691Z,100.00
2023-01-23T02:39:56.935Z,100.00
2023-01-23T02:41:05.824Z,100.00
2023-01-23T02:42:08.559Z,100.00
2023-01-23T02:43:16.188Z,100.00
2023-01-23T02:44:27.826Z,100.00
2023-01-23T02:45:30.949Z,100.00
2023-01-23T02:46:36.509Z,100.00
2023-01-23T02:47:40.783Z,100.00
2023-01-23T02:48:44.128Z,100.00
2023-01-23T02:49:47.303Z,100.00
2023-01-23T02:50:51.870Z,100.00
2023-01-23T02:51:56.807Z,100.00
2023-01-23T02:52:59.566Z,100.00
2023-01-23T02:54:03.836Z,100.00
2023-01-23T02:55:06.307Z,100.00
2023-01-23T02:56:09.160Z,100.00
2023-01-23T02:57:11.676Z,100.00
2023-01-23T02:58:32.543Z,100.00
2023-01-23T02:59:53.141Z,100.00
2023-01-23T03:00:55.208Z,100.00
2023-01-23T03:01:57.713Z,100.00
2023-01-23T03:02:59.577Z,100.00
2023-01-23T03:04:04.682Z,100.00
2023-01-23T03:05:07.481Z,100.00
2023-01-23T03:06:10.481Z,100.00
2023-01-23T03:07:13.033Z,100.00
2023-01-23T03:08:15.475Z,100.00
2023-01-23T03:09:18.222Z,100.00
2023-01-23T03:10:20.691Z,100.00
2023-01-23T03:11:23.847Z,100.00
2023-01-23T03:12:25.769Z,100.00
2023-01-23T03:13:27.523Z,100.00
2023-01-23T03:14:30.130Z,100.00
2023-01-23T03:15:32.063Z,100.00
2023-01-23T03:16:36.614Z,100.00
2023-01-23T03:17:40.202Z,100.00
2023-01-23T03:18:53.462Z,100.00
2023-01-23T03:19:57.840Z,100.00
2023-01-23T03:21:07.310Z,100.00
2023-01-23T03:22:09.570Z,100.00
2023-01-23T03:23:11.806Z,100.00
2023-01-23T03:24:14.563Z,100.00
2023-01-23T03:25:17.039Z,100.00
2023-01-23T03:26:18.801Z,100.00
2023-01-23T03:27:20.717Z,100.00
2023-01-23T03:28:41.023Z,100.00
2023-01-23T03:30:01.923Z,100.00
2023-01-23T03:31:03.824Z,100.00
2023-01-23T03:32:06.852Z,100.00
2023-01-23T03:33:09.188Z,100.00
2023-01-23T03:34:11.479Z,100.00
2023-01-23T03:35:16.637Z,100.00
2023-01-23T03:36:20.078Z,100.00
2023-01-23T03:37:22.136Z,100.00
2023-01-23T03:38:24.143Z,100.00
2023-01-23T03:39:44.434Z,100.00
2023-01-23T03:41:04.806Z,100.00
2023-01-23T03:42:07.124Z,100.00
2023-01-23T03:43:10.255Z,100.00
2023-01-23T03:44:13.890Z,100.00
2023-01-23T03:45:15.731Z,100.00
2023-01-23T03:46:17.726Z,100.00
2023-01-23T03:47:21.006Z,100.00
2023-01-23T03:48:22.746Z,100.00
2023-01-23T03:49:25.188Z,100.00
2023-01-23T03:50:27.678Z,100.00
2023-01-23T03:51:29.902Z,100.00
2023-01-23T03:52:32.377Z,100.00
2023-01-23T03:53:34.754Z,100.00
2023-01-23T03:54:37.060Z,100.00
2023-01-23T03:55:39.065Z,100.00
2023-01-23T03:56:42.450Z,100.00
2023-01-23T03:57:44.229Z,100.00
2023-01-23T03:58:46.191Z,100.00
2023-01-23T03:59:48.580Z,100.00
2023-01-23T04:00:50.824Z,100.00
2023-01-23T04:01:52.585Z,100.00
2023-01-23T04:02:54.910Z,100.00
2023-01-23T04:03:57.146Z,100.00
2023-01-23T04:04:58.842Z,100.00
2023-01-23T04:06:00.729Z,100.00
2023-01-23T04:07:04.127Z,100.00
2023-01-23T04:08:05.916Z,100.00
2023-01-23T04:09:07.712Z,100.00
2023-01-23T04:10:12.102Z,100.00
2023-01-23T04:11:15.078Z,100.00
2023-01-23T04:12:17.315Z,100.00
2023-01-23T04:13:19.125Z,100.00
2023-01-23T04:14:22.082Z,100.00
2023-01-23T04:15:23.921Z,100.00
2023-01-23T04:16:27.711Z,100.00
2023-01-23T04:17:31.211Z,100.00
2023-01-23T04:18:33.728Z,100.00
2023-01-23T04:19:36.098Z,100.00
2023-01-23T04:20:38.410Z,100.00
2023-01-23T04:21:40.469Z,100.00
2023-01-23T04:22:42.416Z,100.00
2023-01-23T04:23:44.349Z,100.00
2023-01-23T04:24:46.726Z,100.00
2023-01-23T04:25:48.973Z,100.00
2023-01-23T04:26:51.895Z,100.00
2023-01-23T04:27:53.767Z,100.00
2023-01-23T04:28:55.576Z,100.00
2023-01-23T04:29:58.627Z,100.00
2023-01-23T04:31:01.659Z,100.00
2023-01-23T04:32:04.868Z,100.00
2023-01-23T04:33:07.466Z,100.00
2023-01-23T04:34:09.532Z,100.00
2023-01-23T04:35:11.276Z,100.00
2023-01-23T04:36:13.715Z,100.00
2023-01-23T04:37:15.680Z,100.00
2023-01-23T04:38:17.825Z,100.00
2023-01-23T04:39:20.106Z,100.00
2023-01-23T04:40:22.501Z,100.00
2023-01-23T04:41:27.059Z,100.00
2023-01-23T04:42:28.926Z,100.00
2023-01-23T04:43:31.569Z,100.00
2023-01-23T04:44:33.771Z,100.00
2023-01-23T04:45:35.823Z,100.00
2023-01-23T04:46:39.309Z,100.00
2023-01-23T04:47:41.099Z,100.00
2023-01-23T04:48:44.230Z,100.00
2023-01-23T04:49:45.943Z,100.00
2023-01-23T04:50:48.767Z,100.00
2023-01-23T04:51:51.583Z,100.00
2023-01-23T04:52:54.023Z,100.00
2023-01-23T04:53:56.084Z,100.00
2023-01-23T04:54:58.339Z,100.00
2023-01-23T04:56:01.226Z,100.00
2023-01-23T04:57:03.187Z,100.00
2023-01-23T04:58:05.028Z,100.00
2023-01-23T04:59:06.973Z,100.00
2023-01-23T05:00:11.000Z,100.00
2023-01-23T05:01:13.232Z,100.00
2023-01-23T05:02:16.374Z,100.00
2023-01-23T05:03:18.882Z,100.00
2023-01-23T05:04:20.553Z,100.00
2023-01-23T05:05:24.471Z,100.00
2023-01-23T05:06:26.934Z,100.00
2023-01-23T05:07:29.107Z,100.00
2023-01-23T05:08:31.239Z,100.00
2023-01-23T05:09:33.383Z,100.00
2023-01-23T05:10:35.102Z,100.00
2023-01-23T05:11:37.807Z,100.00
2023-01-23T05:12:40.703Z,100.00
2023-01-23T05:13:42.753Z,100.00
2023-01-23T05:14:45.312Z,100.00
2023-01-23T05:15:47.182Z,100.00
2023-01-23T05:16:49.615Z,100.00
2023-01-23T05:17:51.513Z,100.00
2023-01-23T05:18:53.318Z,100.00
2023-01-23T05:19:55.254Z,100.00
2023-01-23T05:20:57.051Z,100.00
2023-01-23T05:21:58.969Z,100.00
2023-01-23T05:23:00.830Z,100.00
2023-01-23T05:24:02.513Z,100.00
2023-01-23T05:25:05.038Z,100.00
2023-01-23T05:26:07.193Z,100.00
2023-01-23T05:27:09.449Z,100.00
2023-01-23T05:28:11.847Z,100.00
2023-01-23T05:29:14.251Z,100.00
2023-01-23T05:30:17.785Z,100.00
2023-01-23T05:31:19.878Z,100.00
2023-01-23T05:32:21.855Z,100.00
2023-01-23T05:33:23.926Z,100.00
2023-01-23T05:34:26.396Z,100.00
2023-01-23T05:35:29.261Z,100.00
2023-01-23T05:36:31.199Z,100.00
2023-01-23T05:37:33.403Z,100.00
2023-01-23T05:38:35.450Z,100.00
2023-01-23T05:39:37.149Z,100.00
2023-01-23T05:40:38.997Z,100.00
2023-01-23T05:41:40.779Z,100.00
2023-01-23T05:42:42.424Z,100.00
2023-01-23T05:43:45.118Z,100.00
2023-01-23T05:44:47.103Z,100.00
2023-01-23T05:45:49.037Z,100.00
2023-01-23T05:46:51.069Z,100.00
2023-01-23T05:47:52.923Z,100.00
2023-01-23T05:48:54.788Z,100.00
2023-01-23T05:49:56.651Z,100.00
2023-01-23T05:50:58.427Z,100.00
2023-01-23T05:52:00.234Z,100.00
2023-01-23T05:53:02.215Z,100.00
2023-01-23T05:54:04.252Z,100.00
2023-01-23T05:55:06.573Z,100.00
2023-01-23T05:56:09.215Z,100.00
2023-01-23T05:57:11.843Z,100.00
2023-01-23T05:58:15.983Z,100.00
2023-01-23T05:59:17.983Z,100.00
2023-01-23T06:00:20.748Z,100.00
2023-01-23T06:01:22.887Z,100.00
2023-01-23T06:02:24.695Z,100.00
2023-01-23T06:03:27.056Z,100.00
2023-01-23T06:04:28.872Z,100.00
2023-01-23T06:05:30.751Z,100.00
2023-01-23T06:06:32.396Z,100.00
2023-01-23T06:07:34.267Z,100.00
2023-01-23T06:08:35.928Z,100.00
2023-01-23T06:09:37.880Z,100.00
2023-01-23T06:10:41.781Z,100.00
2023-01-23T06:11:44.143Z,100.00
2023-01-23T06:12:46.072Z,100.00
2023-01-23T06:13:47.866Z,100.00
2023-01-23T06:14:49.866Z,100.00
2023-01-23T06:15:52.031Z,100.00
2023-01-23T06:16:54.227Z,100.00
2023-01-23T06:17:56.158Z,100.00
2023-01-23T06:18:58.522Z,100.00
2023-01-23T06:20:00.599Z,100.00
2023-01-23T06:21:02.456Z,100.00
2023-01-23T06:22:04.365Z,100.00
2023-01-23T06:23:06.126Z,100.00
2023-01-23T06:24:08.610Z,100.00
2023-01-23T06:25:10.854Z,100.00
2023-01-23T06:26:13.395Z,100.00
2023-01-23T06:27:15.599Z,100.00
2023-01-23T06:28:18.276Z,100.00
2023-01-23T06:29:20.183Z,100.00
2023-01-23T06:30:22.357Z,100.00
2023-01-23T06:31:25.129Z,100.00
2023-01-23T06:32:27.455Z,100.00
2023-01-23T06:33:29.606Z,100.00
2023-01-23T06:34:31.778Z,100.00
2023-01-23T06:35:33.788Z,100.00
2023-01-23T06:36:36.425Z,100.00
2023-01-23T06:37:39.122Z,100.00
2023-01-23T06:38:40.941Z,100.00
2023-01-23T06:39:43.539Z,100.00
2023-01-23T06:40:45.457Z,100.00
2023-01-23T06:41:47.293Z,100.00
2023-01-23T06:42:50.980Z,100.00
2023-01-23T06:43:53.702Z,100.00
2023-01-23T06:44:55.888Z,100.00
2023-01-23T06:45:57.962Z,100.00
2023-01-23T06:46:59.701Z,100.00
2023-01-23T06:48:01.544Z,100.00
2023-01-23T06:49:06.218Z,100.00
2023-01-23T06:50:08.977Z,100.00
2023-01-23T06:51:11.152Z,100.00
2023-01-23T06:52:13.608Z,100.00
2023-01-23T06:53:16.725Z,100.00
2023-01-23T06:54:18.425Z,100.00
2023-01-23T06:55:21.399Z,100.00
2023-01-23T06:56:23.210Z,100.00
2023-01-23T06:57:25.005Z,100.00
2023-01-23T06:58:27.780Z,100.00
2023-01-23T06:59:29.507Z,100.00
2023-01-23T07:00:32.589Z,100.00
2023-01-23T07:01:35.393Z,100.00
2023-01-23T07:02:39.720Z,100.00
2023-01-23T07:03:45.040Z,100.00
2023-01-23T07:04:47.155Z,100.00
2023-01-23T07:05:49.234Z,100.00
2023-01-23T07:06:51.542Z,100.00
2023-01-23T07:07:53.245Z,100.00
2023-01-23T07:08:56.307Z,100.00
2023-01-23T07:09:58.072Z,100.00
2023-01-23T07:11:00.877Z,100.00
2023-01-23T07:12:02.648Z,100.00
2023-01-23T07:13:06.059Z,100.00
2023-01-23T07:14:07.961Z,100.00
2023-01-23T07:15:10.362Z,100.00
2023-01-23T07:16:12.073Z,100.00
2023-01-23T07:17:14.382Z,100.00
2023-01-23T07:18:16.180Z,100.00
2023-01-23T07:19:18.019Z,100.00
2023-01-23T07:20:20.851Z,100.00
2023-01-23T07:21:22.941Z,100.00
2023-01-23T07:22:24.698Z,100.00
2023-01-23T07:23:26.780Z,100.00
2023-01-23T07:24:31.800Z,100.00
2023-01-23T07:25:33.866Z,100.00
2023-01-23T07:26:35.767Z,100.00
2023-01-23T07:27:37.588Z,100.00
2023-01-23T07:28:40.055Z,100.00
2023-01-23T07:29:43.541Z,100.00
2023-01-23T07:30:47.202Z,100.00
2023-01-23T07:31:49.598Z,100.00
2023-01-23T07:32:51.372Z,100.00
2023-01-23T07:33:53.599Z,100.00
2023-01-23T07:34:55.463Z,100.00
2023-01-23T07:35:57.598Z,100.00
2023-01-23T07:36:59.331Z,100.00
2023-01-23T07:38:01.322Z,100.00
2023-01-23T07:39:03.389Z,100.00
2023-01-23T07:40:05.668Z,100.00
2023-01-23T07:41:07.652Z,100.00
2023-01-23T07:42:10.243Z,100.00
2023-01-23T07:43:12.463Z,100.00
2023-01-23T07:44:19.903Z,100.00
2023-01-23T07:45:21.688Z,100.00
2023-01-23T07:46:26.173Z,100.00
2023-01-23T07:47:28.579Z,100.00
2023-01-23T07:48:30.671Z,100.00
2023-01-23T07:49:32.994Z,100.00
2023-01-23T07:50:36.010Z,100.00
2023-01-23T07:51:38.063Z,100.00
2023-01-23T07:52:40.726Z,100.00
2023-01-23T07:53:42.628Z,100.00
2023-01-23T07:54:44.371Z,100.00
2023-01-23T07:55:46.243Z,100.00
2023-01-23T07:56:52.414Z,100.00
2023-01-23T07:57:55.411Z,100.00
2023-01-23T07:58:57.592Z,100.00
2023-01-23T07:59:59.619Z,100.00
2023-01-23T08:01:08.273Z,100.00
2023-01-23T08:02:10.916Z,100.00
2023-01-23T08:03:13.023Z,100.00
2023-01-23T08:04:15.335Z,100.00
2023-01-23T08:05:17.417Z,100.00
2023-01-23T08:06:20.203Z,100.00
2023-01-23T08:07:22.702Z,100.00
2023-01-23T08:08:25.766Z,100.00
2023-01-23T08:09:27.862Z,100.00
2023-01-23T08:10:30.013Z,100.00
2023-01-23T08:11:34.165Z,100.00
2023-01-23T08:12:36.675Z,100.00
2023-01-23T08:13:39.081Z,100.00
2023-01-23T08:14:41.716Z,100.00
2023-01-23T08:15:43.567Z,100.00
2023-01-23T08:16:49.092Z,100.00
2023-01-23T08:17:50.879Z,100.00
2023-01-23T08:18:54.423Z,100.00
2023-01-23T08:19:56.631Z,100.00
2023-01-23T08:21:01.885Z,100.00
2023-01-23T08:22:04.682Z,100.00
2023-01-23T08:23:06.569Z,100.00
2023-01-23T08:24:10.512Z,100.00
2023-01-23T08:25:12.334Z,100.00
2023-01-23T08:26:16.898Z,100.00
2023-01-23T08:27:18.959Z,100.00
2023-01-23T08:28:21.551Z,100.00
2023-01-23T08:29:23.232Z,100.00
2023-01-23T08:30:25.436Z,100.00
2023-01-23T08:31:33.452Z,100.00
2023-01-23T08:32:36.544Z,100.00
2023-01-23T08:33:40.809Z,100.00
2023-01-23T08:34:44.062Z,100.00
2023-01-23T08:35:53.873Z,100.00
2023-01-23T08:36:58.009Z,100.00
2023-01-23T08:38:00.452Z,100.00
2023-01-23T08:39:02.595Z,100.00
2023-01-23T08:40:05.806Z,100.00
2023-01-23T08:41:09.991Z,100.00
2023-01-23T08:42:12.964Z,100.00
2023-01-23T08:43:16.814Z,100.00
2023-01-23T08:44:18.758Z,100.00
2023-01-23T08:45:23.475Z,100.00
2023-01-23T08:46:26.762Z,100.00
2023-01-23T08:47:28.786Z,100.00
2023-01-23T08:48:31.373Z,100.00
2023-01-23T08:49:33.882Z,100.00
2023-01-23T08:50:36.147Z,100.00
2023-01-23T08:51:38.227Z,100.00
2023-01-23T08:52:40.925Z,100.00
2023-01-23T08:53:42.853Z,100.00
2023-01-23T08:54:45.488Z,100.00
2023-01-23T08:55:47.469Z,100.00
2023-01-23T08:56:49.515Z,100.00
2023-01-23T08:57:51.432Z,100.00
2023-01-23T08:58:53.485Z,100.00
2023-01-23T08:59:55.185Z,100.00
2023-01-23T09:00:59.471Z,100.00
2023-01-23T09:02:01.483Z,100.00
2023-01-23T09:03:04.058Z,100.00
2023-01-23T09:04:06.598Z,100.00
2023-01-23T09:05:09.163Z,100.00
2023-01-23T09:06:15.799Z,100.00
2023-01-23T09:07:17.704Z,100.00
2023-01-23T09:08:20.064Z,100.00
2023-01-23T09:09:22.283Z,100.00
2023-01-23T09:10:26.097Z,100.00
2023-01-23T09:11:28.757Z,100.00
2023-01-23T09:12:33.938Z,100.00
2023-01-23T09:13:38.466Z,100.00
2023-01-23T09:14:40.932Z,100.00
2023-01-23T09:15:43.588Z,100.00
2023-01-23T09:16:45.501Z,100.00
2023-01-23T09:17:48.522Z,100.00
2023-01-23T09:18:50.858Z,100.00
2023-01-23T09:19:54.139Z,100.00
2023-01-23T09:20:56.243Z,100.00
2023-01-23T09:21:58.482Z,100.00
2023-01-23T09:23:00.395Z,100.00
2023-01-23T09:24:02.301Z,100.00
2023-01-23T09:25:04.740Z,100.00
2023-01-23T09:26:09.129Z,100.00
2023-01-23T09:27:11.318Z,100.00
2023-01-23T09:28:13.257Z,100.00
2023-01-23T09:29:15.667Z,100.00
2023-01-23T09:30:17.923Z,100.00
2023-01-23T09:31:20.112Z,100.00
2023-01-23T09:32:25.006Z,100.00
2023-01-23T09:33:30.806Z,100.00
2023-01-23T09:34:32.968Z,100.00
2023-01-23T09:35:35.349Z,100.00
2023-01-23T09:36:43.175Z,100.00
2023-01-23T09:38:00.843Z,100.00
2023-01-23T09:39:03.722Z,100.00
2023-01-23T09:40:08.925Z,100.00
2023-01-23T09:41:27.894Z,100.00
2023-01-23T09:42:33.988Z,100.00
2023-01-23T09:43:46.272Z,100.00
2023-01-23T09:44:57.876Z,100.00
2023-01-23T09:46:01.653Z,100.00
2023-01-23T09:47:32.888Z,100.00
2023-01-23T09:48:55.123Z,100.00
2023-01-23T09:50:02.871Z,100.00
2023-01-23T09:51:21.348Z,100.00
2023-01-23T09:52:28.499Z,100.00
2023-01-23T09:53:37.631Z,100.00
2023-01-23T09:54:55.051Z,100.00
2023-01-23T09:56:05.213Z,100.00
2023-01-23T09:57:19.767Z,100.00
2023-01-23T09:58:32.291Z,100.00
2023-01-23T09:59:50.251Z,100.00
2023-01-23T10:01:01.084Z,100.00
2023-01-23T10:02:11.738Z,100.00
2023-01-23T10:03:20.607Z,100.00
2023-01-23T10:04:23.556Z,100.00
2023-01-23T10:05:41.460Z,100.00
2023-01-23T10:06:55.470Z,100.00
2023-01-23T10:08:22.182Z,100.00
2023-01-23T10:09:51.776Z,100.00
2023-01-23T10:11:05.388Z,100.00
2023-01-23T10:12:11.138Z,100.00
2023-01-23T10:13:18.940Z,100.00
2023-01-23T10:14:36.791Z,100.00
2023-01-23T10:16:18.501Z,100.00
2023-01-23T10:17:37.892Z,100.00
2023-01-23T10:18:47.641Z,100.00
2023-01-23T10:20:14.942Z,100.00
2023-01-23T10:21:25.931Z,100.00
2023-01-23T10:22:52.880Z,100.00
2023-01-23T10:24:03.009Z,100.00
2023-01-23T10:25:22.730Z,100.00
2023-01-23T10:26:33.859Z,100.00
2023-01-23T10:27:45.643Z,100.00
2023-01-23T10:28:48.724Z,100.00
2023-01-23T10:29:58.655Z,100.00
2023-01-23T10:31:04.051Z,100.00
2023-01-23T10:32:25.059Z,98.78
2023-01-23T10:33:42.323Z,98.49
2023-01-23T10:34:54.381Z,98.95
2023-01-23T10:36:17.646Z,98.84
2023-01-23T10:38:10.942Z,99.58
2023-01-23T10:39:25.778Z,99.19
2023-01-23T10:40:46.435Z,100.00
2023-01-23T10:41:51.253Z,100.00
2023-01-23T10:43:02.844Z,100.00
2023-01-23T10:44:25.364Z,100.00
2023-01-23T10:45:27.549Z,100.00
2023-01-23T10:46:35.556Z,100.00
2023-01-23T10:47:46.369Z,100.00
2023-01-23T10:48:54.107Z,100.00
2023-01-23T10:49:56.422Z,100.00
2023-01-23T10:50:58.955Z,100.00
2023-01-23T10:52:02.297Z,100.00
2023-01-23T10:53:10.882Z,100.00
2023-01-23T10:54:30.936Z,100.00
2023-01-23T10:55:35.282Z,100.00
2023-01-23T10:56:47.784Z,100.00
2023-01-23T10:57:56.227Z,99.73
2023-01-23T10:59:02.330Z,100.00
2023-01-23T11:00:25.372Z,100.00
2023-01-23T11:01:35.391Z,100.00
2023-01-23T11:02:40.511Z,100.00
2023-01-23T11:03:45.749Z,100.00
2023-01-23T11:04:51.960Z,99.39
2023-01-23T11:06:16.573Z,100.00
2023-01-23T11:07:22.235Z,100.00
2023-01-23T11:08:31.073Z,100.00
2023-01-23T11:09:33.749Z,100.00
2023-01-23T11:10:36.389Z,100.00
2023-01-23T11:11:40.697Z,100.00
2023-01-23T11:12:51.930Z,100.00
2023-01-23T11:14:07.858Z,100.00
2023-01-23T11:15:20.222Z,100.00
2023-01-23T11:16:24.660Z,100.00
2023-01-23T11:17:34.181Z,100.00
2023-01-23T11:18:45.057Z,100.00
2023-01-23T11:19:49.588Z,100.00
2023-01-23T11:20:55.834Z,99.75
2023-01-23T11:22:03.505Z,99.57
2023-01-23T11:23:11.878Z,99.42
2023-01-23T11:24:39.678Z,99.01
2023-01-23T11:25:50.268Z,98.96
2023-01-23T11:27:02.406Z,99.53
2023-01-23T11:28:20.775Z,100.00
2023-01-23T11:29:26.263Z,100.00
2023-01-23T11:30:45.034Z,98.96
2023-01-23T11:31:48.101Z,96.86
2023-01-23T11:33:02.261Z,98.60
2023-01-23T11:34:14.153Z,100.00
2023-01-23T11:35:21.850Z,100.00
2023-01-23T11:36:30.627Z,100.00
2023-01-23T11:37:40.430Z,100.00
2023-01-23T11:38:52.611Z,100.00
2023-01-23T11:40:07.413Z,100.00
2023-01-23T11:41:12.767Z,100.00
2023-01-23T11:42:16.485Z,100.00
2023-01-23T11:43:21.336Z,100.00
2023-01-23T11:44:28.188Z,100.00
2023-01-23T11:46:02.068Z,100.00
2023-01-23T11:47:07.605Z,100.00
2023-01-23T11:48:19.509Z,100.00
2023-01-23T11:49:29.976Z,100.00
2023-01-23T11:50:55.320Z,100.00
2023-01-23T11:52:23.330Z,100.00
2023-01-23T11:53:45.336Z,100.00
2023-01-23T11:55:03.985Z,100.00
2023-01-23T11:56:18.977Z,100.00
2023-01-23T11:57:36.608Z,100.00
2023-01-23T11:58:59.723Z,100.00
2023-01-23T12:00:24.131Z,100.00
2023-01-23T12:02:14.177Z,100.00
2023-01-23T12:03:51.200Z,100.00
2023-01-23T12:05:15.327Z,100.00
2023-01-23T12:06:42.902Z,100.00
2023-01-23T12:08:08.733Z,100.00
2023-01-23T12:09:20.372Z,100.00
2023-01-23T12:10:49.209Z,100.00
2023-01-23T12:12:04.775Z,100.00
2023-01-23T12:13:21.482Z,100.00
2023-01-23T12:14:31.997Z,100.00
2023-01-23T12:15:55.892Z,100.00
2023-01-23T12:17:20.918Z,100.00
2023-01-23T12:18:45.670Z,100.00
2023-01-23T12:20:02.249Z,100.00
2023-01-23T12:21:04.320Z,100.00
2023-01-23T12:22:25.110Z,100.00
2023-01-23T12:24:04.779Z,99.48
2023-01-23T12:25:34.062Z,100.00
2023-01-23T12:26:45.271Z,100.00
2023-01-23T12:27:50.282Z,100.00
2023-01-23T12:29:34.851Z,100.00
2023-01-23T12:30:59.545Z,100.00
2023-01-23T12:32:23.025Z,100.00
2023-01-23T12:33:50.431Z,100.00
2023-01-23T12:35:29.212Z,100.00
2023-01-23T12:36:44.413Z,100.00
2023-01-23T12:38:24.399Z,100.00
2023-01-23T12:39:49.793Z,100.00
2023-01-23T12:41:07.192Z,100.00
2023-01-23T12:42:16.062Z,100.00
2023-01-23T12:43:34.252Z,100.00
2023-01-23T12:44:43.708Z,100.00
2023-01-23T12:46:00.681Z,99.74
2023-01-23T12:47:18.607Z,99.82
2023-01-23T12:48:31.322Z,99.46
2023-01-23T12:49:51.602Z,100.00
2023-01-23T12:51:03.540Z,100.00
2023-01-23T12:52:30.313Z,100.00
2023-01-23T12:53:37.629Z,100.00
2023-01-23T12:55:24.700Z,100.00
2023-01-23T12:56:33.891Z,100.00
2023-01-23T12:58:06.873Z,100.00
2023-01-23T12:59:21.348Z,100.00
2023-01-23T13:00:56.140Z,100.00
2023-01-23T13:02:07.642Z,100.00
2023-01-23T13:03:44.835Z,100.00
2023-01-23T13:04:51.723Z,100.00
2023-01-23T13:06:00.763Z,100.00
2023-01-23T13:07:25.256Z,100.00
2023-01-23T13:08:57.747Z,100.00
2023-01-23T13:10:56.378Z,100.00
2023-01-23T13:12:30.268Z,100.00
2023-01-23T13:13:35.660Z,100.00
2023-01-23T13:15:34.227Z,100.00
2023-01-23T13:16:15.165Z,100.00
2023-01-23T13:17:43.191Z,100.00
2023-01-23T13:19:21.660Z,100.00
2023-01-23T13:20:53.593Z,100.00
2023-01-23T13:22:22.235Z,100.00
2023-01-23T13:23:33.715Z,100.00
2023-01-23T13:25:04.487Z,100.00
2023-01-23T13:26:15.464Z,100.00
2023-01-23T13:27:46.521Z,100.00
2023-01-23T13:28:56.153Z,100.00
2023-01-23T13:30:26.435Z,100.00
2023-01-23T13:31:45.579Z,100.00
2023-01-23T13:32:52.312Z,100.00
2023-01-23T13:34:15.407Z,100.00
2023-01-23T13:35:41.716Z,100.00
2023-01-23T13:36:56.656Z,100.00
2023-01-23T13:38:02.103Z,100.00
2023-01-23T13:39:22.338Z,100.00
2023-01-23T13:40:27.520Z,100.00
2023-01-23T13:41:43.965Z,100.00
2023-01-23T13:42:52.768Z,100.00
2023-01-23T13:44:00.871Z,100.00
2023-01-23T13:45:27.731Z,100.00
2023-01-23T14:21:43.078Z,100.00
2023-01-23T14:23:07.423Z,100.00
2023-01-23T14:24:23.402Z,100.00
2023-01-23T14:25:38.438Z,100.00
2023-01-23T14:26:53.175Z,100.00
2023-01-23T14:29:29.967Z,100.00
2023-01-23T14:30:33.347Z,100.00
2023-01-23T14:31:37.396Z,100.00
2023-01-23T14:32:39.780Z,100.00